createdAt,value
2018-01-26T00:01:55.323Z,7.80
2018-01-26T00:04:21.833Z,8.00
2018-01-26T00:06:48.363Z,8.20
2018-01-26T00:09:14.827Z,8.20
2018-01-26T00:11:41.367Z,8.30
2018-01-26T00:14:07.847Z,8.30
2018-01-26T00:16:34.322Z,8.30
2018-01-26T00:19:00.808Z,8.30
2018-01-26T00:21:27.339Z,8.30
2018-01-26T00:23:54.003Z,8.40
2018-01-26T00:26:20.732Z,8.30
2018-01-26T00:28:48.338Z,8.30
2018-01-26T00:31:14.862Z,8.30
2018-01-26T00:33:41.424Z,8.20
2018-01-26T00:36:08.256Z,8.10
2018-01-26T00:38:34.754Z,8.10
2018-01-26T00:41:01.851Z,8.20
2018-01-26T00:43:28.333Z,8.00
2018-01-26T00:45:54.828Z,7.80
2018-01-26T00:48:22.035Z,7.90
2018-01-26T00:50:48.514Z,7.80
2018-01-26T00:53:15.055Z,7.80
2018-01-26T00:55:42.334Z,7.80
2018-01-26T00:58:08.796Z,7.70
2018-01-26T01:00:35.343Z,7.70
2018-01-26T01:03:01.836Z,7.80
2018-01-26T01:05:28.378Z,7.50
2018-01-26T01:07:55.552Z,7.80
2018-01-26T01:10:21.984Z,7.80
2018-01-26T01:12:48.480Z,7.80
2018-01-26T01:15:14.947Z,7.80
2018-01-26T01:17:41.534Z,7.80
2018-01-26T01:20:08.827Z,7.80
2018-01-26T01:22:35.250Z,7.80
2018-01-26T01:25:02.688Z,7.80
2018-01-26T01:27:29.164Z,7.80
2018-01-26T01:29:55.649Z,7.90
2018-01-26T01:32:22.186Z,8.00
2018-01-26T01:34:48.637Z,8.10
2018-01-26T01:37:15.172Z,8.20
2018-01-26T01:39:41.626Z,8.20
2018-01-26T01:42:08.150Z,8.10
2018-01-26T01:44:34.604Z,8.00
2018-01-26T01:47:01.925Z,7.60
2018-01-26T01:49:28.794Z,7.50
2018-01-26T01:51:55.872Z,7.60
2018-01-26T01:54:22.407Z,7.60
2018-01-26T01:56:49.632Z,7.70
2018-01-26T01:59:16.091Z,7.60
2018-01-26T02:01:42.596Z,7.70
2018-01-26T02:04:09.047Z,7.90
2018-01-26T02:06:35.532Z,7.90
2018-01-26T02:09:01.995Z,7.90
2018-01-26T02:11:28.427Z,7.90
2018-01-26T02:13:54.893Z,7.90
2018-01-26T02:16:21.391Z,7.90
2018-01-26T02:18:47.854Z,7.80
2018-01-26T02:21:14.278Z,7.80
2018-01-26T02:23:41.493Z,7.50
2018-01-26T02:26:07.989Z,7.40
2018-01-26T02:28:34.436Z,7.40
2018-01-26T02:31:01.646Z,7.40
2018-01-26T02:36:31.265Z,7.40
2018-01-26T02:38:58.120Z,7.40
2018-01-26T02:41:24.862Z,7.40
2018-01-26T02:43:51.266Z,7.30
2018-01-26T02:46:18.687Z,7.20
2018-01-26T02:48:45.105Z,7.10
2018-01-26T02:51:11.488Z,7.10
2018-01-26T02:53:37.921Z,7.10
2018-01-26T02:56:04.333Z,7.10
2018-01-26T02:58:31.513Z,7.10
2018-01-26T03:00:57.928Z,7.10
2018-01-26T03:03:24.316Z,7.10
2018-01-26T03:05:50.737Z,7.00
2018-01-26T03:08:17.156Z,7.10
2018-01-26T03:10:43.625Z,7.20
2018-01-26T03:13:10.136Z,7.20
2018-01-26T03:15:36.553Z,7.40
2018-01-26T03:18:03.079Z,7.60
2018-01-26T03:20:29.461Z,7.70
2018-01-26T03:22:55.905Z,7.80
2018-01-26T03:25:23.056Z,8.00
2018-01-26T03:27:50.261Z,8.10
2018-01-26T03:30:16.731Z,8.10
2018-01-26T03:32:45.135Z,8.20
2018-01-26T03:35:11.557Z,8.20
2018-01-26T03:37:38.964Z,8.00
2018-01-26T03:40:05.373Z,8.00
2018-01-26T03:42:31.906Z,8.00
2018-01-26T03:44:58.346Z,8.00
2018-01-26T03:47:24.768Z,8.10
2018-01-26T03:49:51.169Z,8.20
2018-01-26T03:52:18.290Z,8.20
2018-01-26T03:54:44.725Z,8.20
2018-01-26T03:57:11.157Z,8.10
2018-01-26T03:59:37.603Z,8.10
2018-01-26T04:02:04.025Z,8.10
2018-01-26T04:04:30.513Z,7.90
2018-01-26T04:06:56.920Z,7.90
2018-01-26T04:09:23.336Z,7.70
2018-01-26T04:11:49.744Z,7.70
2018-01-26T04:14:16.216Z,7.50
2018-01-26T04:16:43.414Z,7.30
2018-01-26T04:19:09.824Z,7.30
2018-01-26T04:21:36.293Z,7.30
2018-01-26T04:24:02.769Z,7.10
2018-01-26T04:26:29.169Z,7.10
2018-01-26T04:28:55.555Z,7.00
2018-01-26T04:31:22.097Z,7.00
2018-01-26T04:33:48.516Z,6.90
2018-01-26T04:36:15.660Z,6.70
2018-01-26T04:38:42.059Z,6.70
2018-01-26T04:41:08.620Z,6.70
2018-01-26T04:43:34.988Z,6.60
2018-01-26T04:46:01.388Z,6.50
2018-01-26T04:48:27.802Z,6.40
2018-01-26T04:50:54.956Z,6.20
2018-01-26T04:53:22.168Z,6.20
2018-01-26T04:55:48.550Z,6.20
2018-01-26T04:58:14.964Z,6.10
2018-01-26T05:00:42.105Z,5.90
2018-01-26T05:03:09.324Z,5.80
2018-01-26T05:05:35.725Z,5.80
2018-01-26T05:08:03.256Z,5.70
2018-01-26T05:10:30.368Z,5.80
2018-01-26T05:12:56.905Z,5.80
2018-01-26T05:15:23.346Z,5.70
2018-01-26T05:17:49.839Z,5.60
2018-01-26T05:20:16.220Z,5.60
2018-01-26T05:22:42.653Z,5.50
2018-01-26T05:25:09.086Z,5.40
2018-01-26T05:27:35.552Z,5.50
2018-01-26T05:30:01.969Z,5.30
2018-01-26T05:32:29.135Z,5.20
2018-01-26T05:34:55.492Z,5.20
2018-01-26T05:37:21.872Z,5.20
2018-01-26T05:39:49.042Z,5.20
2018-01-26T05:42:15.420Z,5.20
2018-01-26T05:44:41.779Z,5.30
2018-01-26T05:47:08.989Z,5.20
2018-01-26T05:49:35.382Z,5.10
2018-01-26T05:52:01.777Z,5.10
2018-01-26T05:54:28.231Z,5.10
2018-01-26T05:56:55.373Z,5.10
2018-01-26T05:59:22.524Z,5.10
2018-01-26T06:01:49.728Z,5.20
2018-01-26T06:04:16.104Z,5.20
2018-01-26T06:06:43.372Z,5.10
2018-01-26T06:09:10.553Z,5.20
2018-01-26T06:11:36.981Z,5.10
2018-01-26T06:14:03.413Z,5.10
2018-01-26T06:16:29.788Z,5.00
2018-01-26T06:18:56.229Z,4.90
2018-01-26T06:21:22.589Z,4.80
2018-01-26T06:23:49.164Z,4.90
2018-01-26T06:26:15.592Z,4.90
2018-01-26T06:28:42.025Z,5.00
2018-01-26T06:31:08.508Z,5.00
2018-01-26T06:33:35.630Z,5.20
2018-01-26T06:36:02.009Z,5.10
2018-01-26T06:38:28.412Z,5.20
2018-01-26T06:40:55.592Z,5.70
2018-01-26T06:43:22.001Z,5.70
2018-01-26T06:45:49.157Z,5.70
2018-01-26T06:48:16.341Z,5.60
2018-01-26T06:50:42.760Z,5.50
2018-01-26T06:53:09.196Z,5.40
2018-01-26T06:55:35.565Z,5.40
2018-01-26T06:58:01.977Z,5.30
2018-01-26T07:00:28.434Z,5.10
2018-01-26T07:02:54.858Z,5.00
2018-01-26T07:05:21.242Z,5.00
2018-01-26T07:07:47.637Z,5.00
2018-01-26T07:10:14.037Z,5.00
2018-01-26T07:12:40.484Z,5.00
2018-01-26T07:15:06.890Z,5.10
2018-01-26T07:17:33.329Z,5.10
2018-01-26T07:20:01.329Z,5.10
2018-01-26T07:22:27.786Z,5.10
2018-01-26T07:24:54.971Z,5.00
2018-01-26T07:27:21.345Z,5.00
2018-01-26T07:29:47.856Z,5.00
2018-01-26T07:32:14.241Z,5.10
2018-01-26T07:34:40.684Z,5.10
2018-01-26T07:37:07.112Z,5.20
2018-01-26T07:39:33.505Z,5.20
2018-01-26T07:41:59.912Z,5.20
2018-01-26T07:44:26.322Z,5.30
2018-01-26T07:46:53.918Z,5.20
2018-01-26T07:49:20.525Z,5.30
2018-01-26T07:51:47.088Z,5.30
2018-01-26T07:54:13.576Z,5.20
2018-01-26T07:56:40.179Z,5.30
2018-01-26T07:59:06.674Z,5.20
2018-01-26T08:01:33.169Z,5.50
2018-01-26T08:03:59.623Z,5.50
2018-01-26T08:06:26.282Z,5.60
2018-01-26T08:08:53.522Z,5.80
2018-01-26T08:11:19.946Z,5.70
2018-01-26T08:13:46.426Z,5.80
2018-01-26T08:16:12.842Z,5.90
2018-01-26T08:18:39.312Z,5.90
2018-01-26T08:21:06.513Z,6.00
2018-01-26T08:23:32.971Z,5.90
2018-01-26T08:26:00.162Z,6.10
2018-01-26T08:28:26.925Z,6.10
2018-01-26T08:30:53.348Z,6.20
2018-01-26T08:33:20.030Z,6.30
2018-01-26T08:35:46.441Z,6.40
2018-01-26T08:38:12.906Z,6.60
2018-01-26T08:40:40.112Z,6.80
2018-01-26T08:43:06.494Z,6.80
2018-01-26T08:45:33.662Z,7.00
2018-01-26T08:48:00.065Z,7.00
2018-01-26T08:50:27.185Z,7.40
2018-01-26T08:52:53.649Z,7.30
2018-01-26T08:55:23.749Z,7.70
2018-01-26T08:57:50.168Z,7.70
2018-01-26T09:00:16.562Z,7.70
2018-01-26T09:02:42.948Z,7.70
2018-01-26T09:05:09.388Z,7.80
2018-01-26T09:07:36.581Z,8.20
2018-01-26T09:12:58.556Z,8.40
2018-01-26T09:15:25.839Z,9.00
2018-01-26T09:17:52.992Z,9.20
2018-01-26T09:20:20.152Z,9.70
2018-01-26T09:22:47.328Z,10.30
2018-01-26T09:25:13.814Z,10.30
2018-01-26T09:27:41.007Z,11.70
2018-01-26T09:30:07.838Z,11.70
2018-01-26T09:32:34.285Z,12.10
2018-01-26T09:35:00.761Z,12.60
2018-01-26T09:37:27.164Z,12.80
2018-01-26T09:39:53.621Z,13.10
2018-01-26T09:42:20.129Z,12.90
2018-01-26T09:44:46.576Z,12.60
2018-01-26T09:50:08.848Z,12.20
2018-01-26T09:52:35.289Z,11.60
2018-01-26T09:55:16.826Z,11.10
2018-01-26T10:00:24.343Z,10.70
2018-01-26T10:02:50.927Z,10.60
2018-01-26T10:05:18.099Z,10.40
2018-01-26T10:07:44.489Z,10.40
2018-01-26T10:10:11.065Z,10.10
2018-01-26T10:12:37.583Z,10.00
2018-01-26T10:15:04.849Z,9.90
2018-01-26T10:17:32.001Z,9.70
2018-01-26T10:19:59.176Z,9.60
2018-01-26T10:22:25.572Z,9.60
2018-01-26T10:24:52.773Z,9.90
2018-01-26T10:27:19.179Z,9.90
2018-01-26T10:29:45.602Z,9.90
2018-01-26T10:32:12.015Z,9.70
2018-01-26T10:34:39.222Z,9.30
2018-01-26T10:37:05.853Z,9.30
2018-01-26T10:39:32.540Z,9.40
2018-01-26T10:41:59.691Z,9.70
2018-01-26T10:44:26.815Z,9.90
2018-01-26T10:46:53.258Z,9.90
2018-01-26T10:49:19.628Z,10.10
2018-01-26T10:51:46.917Z,10.30
2018-01-26T10:54:13.397Z,10.40
2018-01-26T10:56:40.508Z,10.50
2018-01-26T10:59:06.967Z,10.50
2018-01-26T11:01:34.187Z,10.30
2018-01-26T11:04:00.639Z,10.30
2018-01-26T11:06:27.052Z,10.30
2018-01-26T11:08:53.441Z,10.50
2018-01-26T11:11:19.866Z,10.80
2018-01-26T11:13:46.259Z,10.90
2018-01-26T11:16:12.696Z,11.30
2018-01-26T11:18:39.122Z,11.40
2018-01-26T11:21:05.573Z,11.40
2018-01-26T11:23:32.876Z,10.80
2018-01-26T11:25:59.379Z,10.80
2018-01-26T11:28:25.848Z,10.50
2018-01-26T11:30:52.328Z,10.40
2018-01-26T11:33:19.518Z,10.40
2018-01-26T11:35:46.060Z,10.40
2018-01-26T11:38:12.471Z,10.60
2018-01-26T11:40:38.912Z,10.40
2018-01-26T11:43:05.324Z,10.30
2018-01-26T11:45:31.868Z,10.30
2018-01-26T11:47:58.290Z,10.20
2018-01-26T11:50:24.719Z,10.10
2018-01-26T11:52:52.025Z,10.00
2018-01-26T11:55:18.460Z,10.00
2018-01-26T11:57:44.892Z,10.20
2018-01-26T12:00:11.305Z,10.10
2018-01-26T12:02:37.838Z,10.10
2018-01-26T12:05:04.274Z,10.00
2018-01-26T12:07:31.410Z,9.90
2018-01-26T12:09:57.861Z,9.90
2018-01-26T12:12:25.007Z,9.90
2018-01-26T12:14:51.570Z,10.00
2018-01-26T12:17:18.006Z,10.00
2018-01-26T12:19:44.566Z,9.90
2018-01-26T12:22:11.971Z,10.10
2018-01-26T12:24:39.007Z,10.00
2018-01-26T12:27:05.619Z,10.00
2018-01-26T12:29:32.015Z,9.90
2018-01-26T12:31:58.392Z,10.20
2018-01-26T12:34:24.949Z,10.40
2018-01-26T12:36:51.458Z,10.70
2018-01-26T12:39:17.869Z,10.80
2018-01-26T12:41:45.081Z,10.80
2018-01-26T12:44:11.649Z,10.80
2018-01-26T12:46:38.911Z,11.30
2018-01-26T12:49:05.353Z,11.30
2018-01-26T12:51:31.826Z,11.30
2018-01-26T12:53:58.363Z,11.20
2018-01-26T12:56:24.851Z,11.00
2018-01-26T12:58:51.289Z,10.90
2018-01-26T13:01:24.807Z,10.90
2018-01-26T13:03:52.254Z,10.70
2018-01-26T13:06:18.815Z,10.60
2018-01-26T13:08:45.272Z,10.30
2018-01-26T13:11:12.417Z,10.50
2018-01-26T13:13:39.014Z,10.40
2018-01-26T13:16:05.587Z,10.40
2018-01-26T13:18:32.042Z,10.40
2018-01-26T13:20:59.284Z,10.60
2018-01-26T13:23:26.441Z,10.60
2018-01-26T13:25:53.747Z,10.60
2018-01-26T13:28:20.262Z,10.60
2018-01-26T13:30:46.990Z,10.50
2018-01-26T13:33:13.370Z,10.30
2018-01-26T13:35:39.989Z,10.30
2018-01-26T13:38:07.264Z,10.70
2018-01-26T13:40:33.677Z,10.70
2018-01-26T13:43:00.466Z,10.90
2018-01-26T13:45:27.136Z,10.80
2018-01-26T13:47:53.594Z,11.00
2018-01-26T13:50:20.125Z,11.20
2018-01-26T13:52:46.611Z,10.90
2018-01-26T13:55:13.038Z,10.70
2018-01-26T13:57:40.220Z,10.40
2018-01-26T14:00:07.044Z,10.40
2018-01-26T14:02:34.031Z,10.30
2018-01-26T14:05:00.529Z,10.40
2018-01-26T14:07:27.030Z,10.60
2018-01-26T14:09:54.267Z,10.70
2018-01-26T14:12:20.701Z,10.70
2018-01-26T14:14:47.106Z,10.50
2018-01-26T14:17:13.753Z,10.20
2018-01-26T14:19:40.191Z,10.30
2018-01-26T14:22:06.585Z,10.20
2018-01-26T14:24:32.985Z,10.00
2018-01-26T14:27:00.140Z,9.70
2018-01-26T14:29:26.628Z,9.70
2018-01-26T14:31:53.028Z,9.60
2018-01-26T14:34:19.437Z,9.50
2018-01-26T14:36:46.638Z,9.40
2018-01-26T14:39:13.860Z,9.40
2018-01-26T14:41:40.347Z,9.40
2018-01-26T14:44:06.725Z,9.30
2018-01-26T14:46:33.158Z,9.40
2018-01-26T14:48:59.832Z,9.40
2018-01-26T14:51:26.280Z,9.40
2018-01-26T14:53:53.746Z,9.40
2018-01-26T14:56:20.981Z,9.30
2018-01-26T14:58:47.374Z,9.30
2018-01-26T15:01:13.885Z,9.30
2018-01-26T15:03:40.808Z,9.20
2018-01-26T15:06:08.113Z,9.10
2018-01-26T15:08:35.427Z,9.00
2018-01-26T15:11:01.861Z,9.00
2018-01-26T15:13:28.319Z,9.00
2018-01-26T15:15:54.893Z,8.90
2018-01-26T15:18:21.349Z,8.90
2018-01-26T15:20:48.531Z,8.80
2018-01-26T15:23:14.971Z,8.80
2018-01-26T15:25:41.470Z,8.80
2018-01-26T15:28:08.641Z,8.60
2018-01-26T15:30:35.178Z,8.60
2018-01-26T15:33:08.671Z,8.60
2018-01-26T15:35:35.108Z,8.50
2018-01-26T15:38:01.540Z,8.40
2018-01-26T15:40:27.984Z,8.40
2018-01-26T15:42:54.441Z,8.30
2018-01-26T15:45:20.866Z,8.40
2018-01-26T15:47:47.340Z,8.40
2018-01-26T15:50:14.481Z,8.30
2018-01-26T15:52:41.132Z,8.20
2018-01-26T15:55:08.265Z,8.30
2018-01-26T15:57:34.672Z,8.30
2018-01-26T16:00:01.192Z,8.20
2018-01-26T16:02:27.730Z,8.20
2018-01-26T16:04:54.353Z,8.20
2018-01-26T16:07:20.772Z,8.30
2018-01-26T16:09:47.336Z,8.30
2018-01-26T16:12:13.837Z,8.30
2018-01-26T16:14:40.471Z,8.20
2018-01-26T16:17:06.961Z,8.20
2018-01-26T16:19:33.390Z,8.20
2018-01-26T16:24:55.251Z,8.10
2018-01-26T16:27:21.730Z,8.00
2018-01-26T16:29:48.220Z,7.90
2018-01-26T16:32:15.397Z,7.90
2018-01-26T16:34:41.849Z,7.90
2018-01-26T16:37:08.304Z,7.90
2018-01-26T16:39:34.748Z,7.90
2018-01-26T16:42:01.237Z,7.90
2018-01-26T16:44:27.946Z,7.80
2018-01-26T16:46:55.194Z,7.90
2018-01-26T16:49:22.369Z,7.90
2018-01-26T16:51:48.901Z,7.90
2018-01-26T16:54:15.381Z,7.90
2018-01-26T16:56:41.893Z,7.80
2018-01-26T16:59:13.099Z,7.90
2018-01-26T17:01:40.008Z,7.90
2018-01-26T17:04:06.620Z,7.90
2018-01-26T17:06:33.037Z,7.80
2018-01-26T17:08:59.539Z,7.90
2018-01-26T17:11:26.725Z,7.90
2018-01-26T17:13:53.285Z,7.90
2018-01-26T17:16:19.692Z,7.90
2018-01-26T17:18:46.227Z,7.70
2018-01-26T17:21:12.695Z,7.90
2018-01-26T17:23:39.294Z,7.90
2018-01-26T17:26:05.735Z,7.90
2018-01-26T17:28:32.269Z,7.90
2018-01-26T17:30:58.738Z,7.90
2018-01-26T17:33:25.216Z,7.80
2018-01-26T17:35:51.779Z,7.70
2018-01-26T17:38:18.328Z,7.70
2018-01-26T17:40:44.818Z,7.70
2018-01-26T17:43:11.259Z,7.50
2018-01-26T17:45:37.710Z,7.50
2018-01-26T17:48:04.208Z,7.50
2018-01-26T17:50:30.728Z,7.50
2018-01-26T17:52:57.919Z,7.60
2018-01-26T17:55:24.423Z,7.60
2018-01-26T17:57:51.682Z,7.50
2018-01-26T18:00:18.193Z,7.50
2018-01-26T18:02:44.641Z,7.50
2018-01-26T18:05:11.807Z,7.60
2018-01-26T18:07:38.267Z,7.50
2018-01-26T18:10:04.734Z,7.60
2018-01-26T18:12:31.294Z,7.70
2018-01-26T18:14:58.676Z,7.60
2018-01-26T18:17:25.145Z,7.60
2018-01-26T18:19:51.586Z,7.50
2018-01-26T18:22:18.043Z,7.50
2018-01-26T18:24:45.402Z,7.50
2018-01-26T18:27:12.624Z,7.60
2018-01-26T18:29:39.298Z,7.50
2018-01-26T18:32:05.834Z,7.50
2018-01-26T18:34:32.382Z,7.50
2018-01-26T18:36:58.942Z,7.50
2018-01-26T18:39:25.429Z,7.60
2018-01-26T18:41:52.109Z,7.60
2018-01-26T18:44:18.884Z,7.60
2018-01-26T18:46:46.309Z,7.60
2018-01-26T18:49:12.737Z,7.70
2018-01-26T18:51:39.951Z,7.60
2018-01-26T18:54:06.396Z,7.60
2018-01-26T18:56:34.475Z,7.60
2018-01-26T18:59:00.957Z,7.60
2018-01-26T19:01:27.429Z,7.60
2018-01-26T19:03:53.968Z,7.60
2018-01-26T19:06:21.314Z,7.60
2018-01-26T19:08:47.815Z,7.50
2018-01-26T19:11:14.252Z,7.50
2018-01-26T19:13:40.851Z,7.50
2018-01-26T19:16:07.693Z,7.50
2018-01-26T19:18:34.188Z,7.50
2018-01-26T19:21:02.001Z,7.20
2018-01-26T19:23:28.511Z,7.50
2018-01-26T19:25:56.028Z,7.40
2018-01-26T19:28:22.781Z,7.30
2018-01-26T19:30:49.435Z,7.30
2018-01-26T19:33:16.013Z,7.40
2018-01-26T19:35:42.571Z,7.30
2018-01-26T19:38:09.236Z,7.30
2018-01-26T19:40:35.972Z,7.30
2018-01-26T19:43:02.717Z,7.30
2018-01-26T19:45:30.089Z,7.30
2018-01-26T19:47:57.208Z,7.20
2018-01-26T19:50:24.091Z,7.30
2018-01-26T19:52:51.548Z,7.20
2018-01-26T19:55:19.048Z,7.10
2018-01-26T19:57:45.785Z,7.10
2018-01-26T20:00:12.741Z,7.10
2018-01-26T20:02:39.491Z,7.00
2018-01-26T20:05:24.682Z,7.10
2018-01-26T20:11:09.646Z,7.10
2018-01-26T20:13:40.028Z,7.10
2018-01-26T20:16:08.492Z,7.20
2018-01-26T20:18:35.397Z,7.10
2018-01-26T20:21:02.275Z,7.20
2018-01-26T20:23:29.476Z,7.10
2018-01-26T20:25:56.373Z,7.20
2018-01-26T20:28:23.133Z,7.20
2018-01-26T20:30:50.752Z,7.00
2018-01-26T20:33:17.708Z,7.00
2018-01-26T20:35:44.668Z,7.10
2018-01-26T20:38:11.719Z,7.10
2018-01-26T20:40:38.517Z,7.10
2018-01-26T20:43:05.202Z,7.00
2018-01-26T20:45:31.777Z,6.90
2018-01-26T20:47:59.134Z,7.10
2018-01-26T20:50:25.663Z,7.10
2018-01-26T20:52:52.178Z,7.10
2018-01-26T20:55:18.725Z,7.10
2018-01-26T20:57:45.263Z,7.00
2018-01-26T21:00:11.779Z,7.00
2018-01-26T21:02:38.390Z,7.00
2018-01-26T21:05:05.166Z,6.90
2018-01-26T21:07:32.638Z,6.90
2018-01-26T21:09:59.710Z,6.90
2018-01-26T21:12:31.404Z,6.90
2018-01-26T21:14:57.947Z,6.90
2018-01-26T21:17:24.468Z,6.80
2018-01-26T21:19:51.071Z,6.80
2018-01-26T21:22:18.579Z,6.80
2018-01-26T21:24:45.116Z,6.70
2018-01-26T21:27:11.607Z,6.70
2018-01-26T21:29:39.078Z,6.70
2018-01-26T21:32:07.914Z,6.70
2018-01-26T21:34:35.885Z,6.70
2018-01-26T21:37:02.512Z,6.60
2018-01-26T21:39:29.860Z,6.60
2018-01-26T21:41:56.461Z,6.60
2018-01-26T21:44:23.948Z,6.50
2018-01-26T21:46:50.543Z,6.50
2018-01-26T21:49:17.135Z,6.60
2018-01-26T21:51:44.592Z,6.50
2018-01-26T21:54:11.959Z,6.60
2018-01-26T21:56:38.980Z,6.60
2018-01-26T21:59:05.574Z,6.50
2018-01-26T22:01:32.156Z,6.50
2018-01-26T22:03:58.843Z,6.50
2018-01-26T22:06:32.244Z,6.60
2018-01-26T22:08:59.267Z,6.60
2018-01-26T22:11:27.480Z,6.60
2018-01-26T22:13:54.039Z,6.60
2018-01-26T22:16:20.561Z,6.60
2018-01-26T22:18:47.103Z,6.60
2018-01-26T22:21:14.692Z,6.60
2018-01-26T22:23:41.578Z,6.60
2018-01-26T22:26:08.850Z,6.70
2018-01-26T22:28:35.410Z,6.60
2018-01-26T22:31:01.939Z,6.70
2018-01-26T22:33:28.422Z,6.70
2018-01-26T22:35:55.987Z,6.60
2018-01-26T22:38:23.231Z,6.60
2018-01-26T22:40:50.148Z,6.60
2018-01-26T22:43:16.916Z,6.60
2018-01-26T22:45:44.198Z,6.50
2018-01-26T22:48:10.749Z,6.50
2018-01-26T22:50:37.462Z,6.50
2018-01-26T22:53:05.390Z,6.50
2018-01-26T22:55:32.489Z,6.50
2018-01-26T22:57:59.073Z,6.50
2018-01-26T23:00:25.688Z,6.50
2018-01-26T23:02:54.681Z,6.50
2018-01-26T23:05:21.267Z,6.50
2018-01-26T23:07:48.500Z,6.30
2018-01-26T23:10:15.824Z,6.30
2018-01-26T23:12:43.074Z,6.40
2018-01-26T23:15:10.235Z,6.30
2018-01-26T23:17:36.789Z,6.30
2018-01-26T23:20:03.298Z,6.30
2018-01-26T23:22:29.791Z,6.30
2018-01-26T23:24:56.289Z,6.20
2018-01-26T23:27:24.277Z,6.30
2018-01-26T23:29:50.920Z,6.30
2018-01-26T23:32:18.215Z,6.30
2018-01-26T23:34:44.655Z,6.30
2018-01-26T23:37:11.154Z,6.30
2018-01-26T23:39:38.362Z,6.20
2018-01-26T23:42:04.832Z,6.20
2018-01-26T23:44:31.512Z,6.30
2018-01-26T23:46:58.024Z,6.30
2018-01-26T23:49:24.652Z,6.30
2018-01-26T23:51:51.843Z,6.30
2018-01-26T23:54:18.347Z,6.30
2018-01-26T23:56:44.792Z,6.40
2018-01-26T23:59:11.252Z,6.40
